Time;durP1;ratioP1;P1;durP2;ratioP2;P2;SDS_P1;SDS_P2;PMS_P1;PMS_P2;Temp;Humidity;BMP_temperature;BMP_pressure;BME280_temperature;BME280_humidity;BME280_pressure;Samples;Min_cycle;Max_cycle;Signal;HPM_P1;HPM_P2
2022/08/20 00:00:45;;;;;;;2.38;1.38;;;;;;;;;;5081686;28;20016;-77
2022/08/20 00:03:22;;;;;;;1.60;1.50;;;;;;;;;;5080786;28;20020;-76
2022/08/20 00:05:52;;;;;;;1.42;1.33;;;;;;;;;;5082511;28;20024;-76
2022/08/20 00:08:18;;;;;;;1.60;1.23;;;;;;;;;;5085457;28;20020;-77
2022/08/20 00:10:45;;;;;;;3.15;1.75;;;;;;;;;;5091145;28;20021;-76
2022/08/20 00:13:12;;;;;;;2.03;1.70;;;;;;;;;;5082602;28;20040;-77
2022/08/20 00:15:38;;;;;;;1.80;1.60;;;;;;;;;;5071834;28;20063;-76
2022/08/20 00:18:05;;;;;;;2.03;1.83;;;;;;;;;;5069121;28;20028;-77
2022/08/20 00:20:34;;;;;;;2.63;2.30;;;;;;;;;;5069923;28;20044;-77
2022/08/20 00:23:00;;;;;;;2.40;1.92;;;;;;;;;;5071508;28;20099;-76
2022/08/20 00:25:27;;;;;;;2.15;2.00;;;;;;;;;;5070993;28;20020;-78
2022/08/20 00:27:53;;;;;;;2.30;2.13;;;;;;;;;;5073709;28;20127;-77
2022/08/20 00:30:20;;;;;;;2.78;2.55;;;;;;;;;;5071569;28;20031;-77
2022/08/20 00:32:47;;;;;;;2.55;2.35;;;;;;;;;;5078984;28;20067;-77
2022/08/20 00:35:15;;;;;;;3.25;2.95;;;;;;;;;;5090941;28;20087;-76
2022/08/20 00:37:41;;;;;;;3.70;3.40;;;;;;;;;;5090388;28;20054;-77
2022/08/20 00:40:08;;;;;;;4.28;3.60;;;;;;;;;;5092064;28;20039;-77
2022/08/20 00:42:45;;;;;;;3.75;3.45;;;;;;;;;;5089194;28;20081;-76
2022/08/20 00:45:12;;;;;;;4.28;3.63;;;;;;;;;;5090967;28;20096;-78
2022/08/20 00:47:42;;;;;;;3.92;3.20;;;;;;;;;;5088678;28;20259;-76
2022/08/20 00:50:09;;;;;;;3.92;3.53;;;;;;;;;;5091195;28;20414;-76
2022/08/20 00:52:36;;;;;;;3.15;2.95;;;;;;;;;;5089051;28;20059;-76
2022/08/20 00:55:04;;;;;;;3.67;3.30;;;;;;;;;;5090479;28;20080;-77
2022/08/20 00:57:53;;;;;;;8.52;3.95;;;;;;;;;;5091550;28;20032;-78
2022/08/20 01:00:27;;;;;;;3.63;3.30;;;;;;;;;;5092118;28;20017;-76
2022/08/20 01:02:54;;;;;;;5.40;3.70;;;;;;;;;;5088887;28;20020;-77
2022/08/20 01:05:22;;;;;;;4.43;3.33;;;;;;;;;;5090164;28;20024;-79
2022/08/20 01:07:49;;;;;;;4.00;3.60;;;;;;;;;;5088242;28;20146;-77
2022/08/20 01:10:16;;;;;;;4.10;3.25;;;;;;;;;;5080978;28;20032;-77
2022/08/20 01:12:45;;;;;;;4.30;3.70;;;;;;;;;;5081973;28;20078;-78
2022/08/20 01:15:14;;;;;;;3.40;3.10;;;;;;;;;;5079038;28;20545;-76
2022/08/20 01:17:44;;;;;;;3.92;2.65;;;;;;;;;;5080994;28;20534;-77
2022/08/20 01:20:12;;;;;;;2.80;2.33;;;;;;;;;;5077809;28;20070;-77
2022/08/20 01:25:44;;;;;;;5.13;3.65;;;;;;;;;;5081329;28;20052;-78
2022/08/20 01:28:11;;;;;;;3.88;3.00;;;;;;;;;;5082849;28;20032;-77
2022/08/20 01:30:37;;;;;;;3.42;2.75;;;;;;;;;;5078808;28;20060;-78
2022/08/20 01:33:04;;;;;;;4.43;3.70;;;;;;;;;;5078620;28;20032;-77
2022/08/20 01:35:34;;;;;;;4.80;3.70;;;;;;;;;;5068931;28;20021;-77
2022/08/20 01:38:00;;;;;;;4.40;2.40;;;;;;;;;;5072380;28;20028;-76
2022/08/20 01:40:43;;;;;;;4.55;4.07;;;;;;;;;;5090231;28;20058;-78
2022/08/20 01:43:09;;;;;;;4.10;3.55;;;;;;;;;;5092684;28;20024;-77
2022/08/20 01:45:35;;;;;;;4.85;4.32;;;;;;;;;;5095382;28;20052;-77
2022/08/20 01:48:01;;;;;;;4.78;2.55;;;;;;;;;;5094342;28;20221;-76
2022/08/20 01:50:30;;;;;;;4.63;3.55;;;;;;;;;;5094049;28;20023;-77
2022/08/20 01:52:56;;;;;;;;;;;;;;;;;;5093005;28;20066;-75
2022/08/20 01:55:22;;;;;;;4.82;4.13;;;;;;;;;;5093172;28;19959;-77
2022/08/20 01:57:48;;;;;;;3.38;3.08;;;;;;;;;;5092275;28;20107;-77
2022/08/20 02:00:15;;;;;;;5.20;4.03;;;;;;;;;;5091987;28;20455;-77
2022/08/20 02:02:41;;;;;;;5.75;4.53;;;;;;;;;;5077544;28;20370;-76
2022/08/20 02:05:07;;;;;;;4.32;3.83;;;;;;;;;;5073368;28;20043;-77
2022/08/20 02:07:33;;;;;;;5.43;4.13;;;;;;;;;;5072473;28;20025;-78
2022/08/20 02:10:00;;;;;;;5.32;3.13;;;;;;;;;;5074482;28;20108;-78
2022/08/20 02:12:26;;;;;;;6.15;3.90;;;;;;;;;;5071554;28;20482;-77
2022/08/20 02:14:52;;;;;;;5.00;4.05;;;;;;;;;;5071875;28;20439;-76
2022/08/20 02:17:21;;;;;;;5.13;3.55;;;;;;;;;;5072278;28;20485;-77
2022/08/20 02:19:47;;;;;;;;;;;;;;;;;;5073447;28;20032;-77
2022/08/20 02:22:17;;;;;;;4.78;3.72;;;;;;;;;;5074577;28;19959;-76
2022/08/20 02:24:43;;;;;;;5.78;3.92;;;;;;;;;;5088605;28;20448;-76
2022/08/20 02:27:09;;;;;;;5.75;3.28;;;;;;;;;;5093476;28;20499;-77
2022/08/20 02:29:35;;;;;;;5.80;4.53;;;;;;;;;;5093641;28;20055;-77
2022/08/20 02:32:01;;;;;;;4.57;3.60;;;;;;;;;;5092451;28;20024;-76
2022/08/20 02:34:27;;;;;;;5.50;3.80;;;;;;;;;;5085473;28;20032;-76
2022/08/20 02:36:53;;;;;;;5.00;4.50;;;;;;;;;;5080451;28;20031;-77
2022/08/20 02:39:19;;;;;;;6.45;5.85;;;;;;;;;;5084615;28;20155;-77
2022/08/20 02:41:45;;;;;;;4.10;3.70;;;;;;;;;;5082419;28;20035;-76
2022/08/20 02:44:11;;;;;;;5.10;4.63;;;;;;;;;;5082605;28;20023;-76
2022/08/20 02:46:37;;;;;;;7.07;4.82;;;;;;;;;;5081473;28;20084;-77
2022/08/20 02:49:03;;;;;;;5.53;4.80;;;;;;;;;;5084206;28;20414;-76
2022/08/20 02:51:30;;;;;;;4.05;3.58;;;;;;;;;;5082745;28;20031;-77
2022/08/20 02:53:55;;;;;;;5.72;4.97;;;;;;;;;;5082634;28;20024;-77
2022/08/20 02:56:21;;;;;;;4.57;3.80;;;;;;;;;;5083317;28;20344;-76
2022/08/20 02:58:47;;;;;;;5.47;4.97;;;;;;;;;;5084327;28;20036;-76
2022/08/20 03:01:14;;;;;;;6.65;5.57;;;;;;;;;;5090137;28;20065;-78
2022/08/20 03:03:41;;;;;;;5.40;4.78;;;;;;;;;;5081293;28;20023;-77
2022/08/20 03:06:07;;;;;;;6.15;5.43;;;;;;;;;;5081279;28;20029;-79
2022/08/20 03:08:34;;;;;;;6.53;5.93;;;;;;;;;;5080590;28;20030;-77
2022/08/20 03:11:00;;;;;;;5.63;5.13;;;;;;;;;;5084584;28;20021;-77
2022/08/20 03:13:26;;;;;;;4.30;3.90;;;;;;;;;;5081689;28;20036;-77
2022/08/20 03:15:54;;;;;;;3.65;3.30;;;;;;;;;;5083292;28;20599;-77
2022/08/20 03:18:21;;;;;;;7.85;3.72;;;;;;;;;;5082195;28;20017;-78
2022/08/20 03:20:48;;;;;;;4.45;3.83;;;;;;;;;;5082760;28;20048;-77
2022/08/20 03:23:14;;;;;;;5.13;4.32;;;;;;;;;;5081426;28;20028;-77
2022/08/20 03:25:40;;;;;;;7.95;4.57;;;;;;;;;;5079300;28;20035;-76
2022/08/20 03:28:07;;;;;;;6.35;4.47;;;;;;;;;;5071841;28;20497;-76
2022/08/20 03:30:33;;;;;;;5.32;4.47;;;;;;;;;;5073247;28;20178;-82
2022/08/20 03:32:59;;;;;;;7.20;4.50;;;;;;;;;;5091779;28;20123;-82
2022/08/20 03:35:26;;;;;;;5.28;3.85;;;;;;;;;;5090430;28;20035;-77
2022/08/20 03:37:52;;;;;;;6.45;4.00;;;;;;;;;;5092646;28;20024;-76
2022/08/20 03:40:20;;;;;;;5.47;4.30;;;;;;;;;;5092351;28;20435;-75
2022/08/20 03:42:46;;;;;;;7.00;4.15;;;;;;;;;;5093062;28;20031;-76
2022/08/20 03:45:13;;;;;;;4.38;3.92;;;;;;;;;;5091730;28;20024;-78
2022/08/20 03:47:39;;;;;;;5.32;3.95;;;;;;;;;;5092491;28;20070;-76
2022/08/20 03:50:07;;;;;;;5.78;4.20;;;;;;;;;;5092042;28;20028;-76
2022/08/20 03:52:33;;;;;;;5.25;4.07;;;;;;;;;;5091176;28;20042;-76
2022/08/20 03:54:58;;;;;;;5.57;3.72;;;;;;;;;;5092108;28;20103;-76
2022/08/20 03:57:26;;;;;;;5.63;3.58;;;;;;;;;;5091318;28;20039;-76
2022/08/20 03:59:52;;;;;;;4.75;3.88;;;;;;;;;;5091530;28;20111;-77
2022/08/20 04:02:18;;;;;;;4.40;3.90;;;;;;;;;;5090454;28;20263;-77
2022/08/20 04:04:44;;;;;;;5.47;4.22;;;;;;;;;;5089377;28;20490;-76
2022/08/20 04:07:15;;;;;;;4.63;3.70;;;;;;;;;;5090280;28;20022;-81
2022/08/20 04:09:42;;;;;;;5.55;4.32;;;;;;;;;;5090583;28;20056;-77
2022/08/20 04:12:11;;;;;;;4.50;4.03;;;;;;;;;;5091096;28;20024;-76
2022/08/20 04:14:37;;;;;;;5.55;4.28;;;;;;;;;;5091247;28;20482;-76
2022/08/20 04:17:04;;;;;;;4.10;3.53;;;;;;;;;;5083781;28;20051;-77
2022/08/20 04:19:30;;;;;;;7.00;5.35;;;;;;;;;;5089237;28;20016;-77
2022/08/20 04:21:56;;;;;;;5.30;4.15;;;;;;;;;;5090872;28;20431;-76
2022/08/20 04:24:22;;;;;;;4.65;4.25;;;;;;;;;;5090672;28;20055;-83
2022/08/20 04:26:48;;;;;;;6.00;4.20;;;;;;;;;;5087045;28;20048;-76
2022/08/20 04:29:13;;;;;;;6.30;4.25;;;;;;;;;;5080113;28;20024;-77
2022/08/20 04:31:39;;;;;;;4.60;4.20;;;;;;;;;;5081776;28;20032;-81
2022/08/20 04:34:08;;;;;;;4.13;3.80;;;;;;;;;;5080257;28;20067;-76
2022/08/20 04:36:34;;;;;;;4.40;3.65;;;;;;;;;;5081638;28;20066;-82
2022/08/20 04:39:00;;;;;;;4.22;3.63;;;;;;;;;;5080523;28;20104;-82
2022/08/20 04:41:26;;;;;;;4.80;4.30;;;;;;;;;;5083289;28;20077;-76
2022/08/20 04:43:53;;;;;;;5.97;4.20;;;;;;;;;;5080173;28;20059;-76
2022/08/20 04:46:19;;;;;;;6.13;4.97;;;;;;;;;;5081196;28;20526;-76
2022/08/20 04:48:45;;;;;;;6.00;4.10;;;;;;;;;;5082826;28;20043;-79
2022/08/20 04:51:13;;;;;;;7.00;5.40;;;;;;;;;;5080467;28;20459;-78
2022/08/20 04:53:40;;;;;;;5.10;3.50;;;;;;;;;;5072902;28;20039;-77
2022/08/20 04:56:06;;;;;;;6.10;4.55;;;;;;;;;;5070984;28;20375;-76
2022/08/20 04:58:36;;;;;;;6.30;4.95;;;;;;;;;;5090003;28;20024;-76
2022/08/20 05:01:07;;;;;;;6.68;4.93;;;;;;;;;;5088437;28;20016;-77
2022/08/20 05:03:33;;;;;;;5.82;4.53;;;;;;;;;;5091884;28;20074;-76
2022/08/20 05:06:03;;;;;;;5.82;4.78;;;;;;;;;;5089188;28;20020;-76
2022/08/20 05:08:29;;;;;;;6.10;4.68;;;;;;;;;;5081209;28;20025;-77
2022/08/20 05:10:56;;;;;;;6.53;4.63;;;;;;;;;;5069585;28;20024;-83
2022/08/20 05:13:22;;;;;;;6.50;5.32;;;;;;;;;;5071905;28;20451;-77
2022/08/20 05:15:48;;;;;;;7.97;4.72;;;;;;;;;;5079311;28;20059;-79
2022/08/20 05:18:17;;;;;;;7.03;5.63;;;;;;;;;;5088747;28;20367;-77
2022/08/20 05:20:43;;;;;;;6.88;4.38;;;;;;;;;;5076404;28;20024;-76
2022/08/20 05:23:10;;;;;;;7.30;5.20;;;;;;;;;;5072716;28;20039;-79
2022/08/20 05:25:37;;;;;;;6.10;5.20;;;;;;;;;;5087153;28;20394;-81
2022/08/20 05:28:11;;;;;;;5.47;3.83;;;;;;;;;;5073930;28;20379;-76
2022/08/20 05:30:39;;;;;;;4.63;3.80;;;;;;;;;;5088215;28;20510;-82
2022/08/20 05:33:05;;;;;;;8.10;5.45;;;;;;;;;;5093979;28;20085;-77
2022/08/20 05:35:33;;;;;;;7.85;5.68;;;;;;;;;;5094067;28;20024;-77
2022/08/20 05:38:00;;;;;;;8.82;5.40;;;;;;;;;;5088829;28;20378;-76
2022/08/20 05:40:26;;;;;;;5.65;3.80;;;;;;;;;;5092997;28;20489;-77
2022/08/20 05:42:53;;;;;;;5.53;4.53;;;;;;;;;;5092799;28;20359;-76
2022/08/20 05:45:19;;;;;;;8.15;4.68;;;;;;;;;;5091935;28;20095;-76
2022/08/20 05:47:47;;;;;;;6.45;4.88;;;;;;;;;;5092817;28;20034;-77
2022/08/20 05:50:13;;;;;;;7.65;5.28;;;;;;;;;;5093006;28;20347;-82
2022/08/20 05:52:40;;;;;;;7.65;5.03;;;;;;;;;;5090108;28;20556;-78
2022/08/20 05:55:07;;;;;;;6.88;4.63;;;;;;;;;;5078174;28;20032;-82
2022/08/20 05:57:33;;;;;;;7.72;5.30;;;;;;;;;;5083636;28;20212;-83
2022/08/20 06:00:01;;;;;;;6.88;4.85;;;;;;;;;;5082057;28;20443;-76
2022/08/20 06:05:12;;;;;;;9.05;4.93;;;;;;;;;;5084470;28;20058;-76
2022/08/20 06:07:38;;;;;;;8.45;4.95;;;;;;;;;;5084869;28;20056;-76
2022/08/20 06:10:04;;;;;;;8.25;5.03;;;;;;;;;;5083474;28;20020;-83
2022/08/20 06:12:31;;;;;;;7.45;5.18;;;;;;;;;;5082846;28;20122;-76
2022/08/20 06:14:57;;;;;;;8.73;5.47;;;;;;;;;;5085058;28;20070;-82
2022/08/20 06:17:23;;;;;;;11.30;6.22;;;;;;;;;;5083733;28;20949;-76
2022/08/20 06:19:49;;;;;;;10.52;5.57;;;;;;;;;;5092931;28;20085;-76
2022/08/20 06:22:15;;;;;;;8.45;4.00;;;;;;;;;;5091665;28;20055;-76
2022/08/20 06:24:41;;;;;;;9.32;6.10;;;;;;;;;;5093895;28;20019;-79
2022/08/20 06:27:07;;;;;;;11.73;6.43;;;;;;;;;;5092561;28;20102;-78
2022/08/20 06:29:35;;;;;;;10.75;6.88;;;;;;;;;;5094220;28;20394;-81
2022/08/20 06:32:01;;;;;;;12.00;7.53;;;;;;;;;;5093308;28;20347;-78
2022/08/20 06:34:27;;;;;;;12.60;8.63;;;;;;;;;;5094447;28;20283;-76
2022/08/20 06:36:57;;;;;;;8.75;5.38;;;;;;;;;;5091756;28;20430;-77
2022/08/20 06:39:24;;;;;;;12.05;9.93;;;;;;;;;;5092147;28;20028;-78
2022/08/20 06:41:50;;;;;;;10.05;8.93;;;;;;;;;;5093169;28;20024;-77
2022/08/20 06:44:17;;;;;;;12.10;9.25;;;;;;;;;;5091100;28;20016;-77
2022/08/20 06:46:43;;;;;;;12.32;9.80;;;;;;;;;;5094111;28;20035;-82
2022/08/20 06:49:10;;;;;;;10.55;9.02;;;;;;;;;;5092887;28;20024;-79
2022/08/20 06:51:36;;;;;;;14.13;9.48;;;;;;;;;;5093273;28;20363;-81
2022/08/20 06:54:02;;;;;;;8.93;7.22;;;;;;;;;;5092058;28;20081;-81
2022/08/20 06:56:28;;;;;;;14.18;9.57;;;;;;;;;;5091788;28;20054;-76
2022/08/20 06:58:54;;;;;;;12.05;8.68;;;;;;;;;;5091409;28;20385;-77
2022/08/20 07:01:20;;;;;;;13.10;8.48;;;;;;;;;;5093101;28;20028;-82
2022/08/20 07:03:47;;;;;;;12.57;9.10;;;;;;;;;;5093171;28;20043;-76
2022/08/20 07:06:14;;;;;;;10.55;7.22;;;;;;;;;;5078034;28;20117;-77
2022/08/20 07:08:41;;;;;;;12.73;8.13;;;;;;;;;;5076778;28;20546;-76
2022/08/20 07:11:07;;;;;;;11.05;7.88;;;;;;;;;;5077657;28;20127;-77
2022/08/20 07:13:35;;;;;;;12.00;7.20;;;;;;;;;;5079276;28;20090;-77
2022/08/20 07:16:01;;;;;;;11.55;7.80;;;;;;;;;;5074860;28;20027;-77
2022/08/20 07:18:27;;;;;;;8.35;7.03;;;;;;;;;;5078560;28;20040;-78
2022/08/20 07:20:55;;;;;;;10.15;7.30;;;;;;;;;;5079447;28;20032;-76
2022/08/20 07:23:22;;;;;;;12.23;8.82;;;;;;;;;;5077246;28;20024;-76
2022/08/20 07:25:48;;;;;;;12.77;8.00;;;;;;;;;;5077706;28;20036;-76
2022/08/20 07:28:15;;;;;;;15.35;8.60;;;;;;;;;;5074842;28;20028;-76
2022/08/20 07:33:27;;;;;;;13.15;7.55;;;;;;;;;;5082422;28;20043;-75
2022/08/20 07:35:53;;;;;;;12.15;6.80;;;;;;;;;;5079836;28;20065;-76
2022/08/20 07:38:23;;;;;;;11.55;6.70;;;;;;;;;;5071021;28;20085;-76
2022/08/20 07:40:49;;;;;;;12.70;7.22;;;;;;;;;;5075120;28;20074;-76
2022/08/20 07:43:15;;;;;;;12.25;6.32;;;;;;;;;;5073735;28;20056;-77
2022/08/20 07:45:41;;;;;;;12.18;6.85;;;;;;;;;;5078212;28;20020;-77
2022/08/20 07:48:08;;;;;;;10.93;6.63;;;;;;;;;;5076885;28;20036;-77
2022/08/20 07:50:34;;;;;;;15.05;7.32;;;;;;;;;;5083272;28;20357;-76
2022/08/20 07:53:00;;;;;;;15.45;6.95;;;;;;;;;;5082890;28;20035;-76
2022/08/20 07:55:27;;;;;;;12.82;6.95;;;;;;;;;;5078411;28;20457;-76
2022/08/20 07:57:54;;;;;;;8.73;5.72;;;;;;;;;;5074776;28;20026;-76
2022/08/20 08:00:21;;;;;;;13.88;7.32;;;;;;;;;;5084743;28;20061;-76
2022/08/20 08:02:47;;;;;;;13.13;7.18;;;;;;;;;;5078016;28;20032;-76
2022/08/20 08:05:14;;;;;;;12.93;5.93;;;;;;;;;;5084101;28;20040;-77
2022/08/20 08:07:41;;;;;;;13.27;7.50;;;;;;;;;;5070695;28;20024;-77
2022/08/20 08:10:08;;;;;;;21.48;8.05;;;;;;;;;;5088219;28;20039;-77
2022/08/20 08:12:37;;;;;;;13.45;7.63;;;;;;;;;;5080757;28;20059;-77
2022/08/20 08:15:07;;;;;;;11.80;7.07;;;;;;;;;;5071585;28;20024;-77
2022/08/20 08:17:33;;;;;;;10.75;6.68;;;;;;;;;;5071930;28;20020;-76
2022/08/20 08:20:00;;;;;;;12.45;6.75;;;;;;;;;;5079337;28;20024;-76
2022/08/20 08:22:26;;;;;;;11.07;6.97;;;;;;;;;;5071591;28;20031;-77
2022/08/20 08:24:52;;;;;;;14.35;6.95;;;;;;;;;;5079083;28;20036;-77
2022/08/20 08:27:18;;;;;;;11.90;6.63;;;;;;;;;;5072779;28;20056;-76
2022/08/20 08:29:44;;;;;;;11.65;6.70;;;;;;;;;;5084793;28;20029;-77
2022/08/20 08:32:10;;;;;;;11.85;6.30;;;;;;;;;;5075627;28;20495;-77
2022/08/20 08:34:37;;;;;;;11.00;5.75;;;;;;;;;;5079899;28;20047;-77
2022/08/20 08:37:04;;;;;;;11.70;7.18;;;;;;;;;;5072270;28;20115;-76
2022/08/20 08:39:31;;;;;;;11.80;6.18;;;;;;;;;;5077295;28;20031;-77
2022/08/20 08:41:59;;;;;;;12.75;7.05;;;;;;;;;;5078294;28;20366;-77
2022/08/20 08:44:27;;;;;;;14.25;7.00;;;;;;;;;;5079736;28;20024;-78
2022/08/20 08:47:17;;;;;;;13.00;7.85;;;;;;;;;;5080247;28;20384;-76
2022/08/20 08:49:43;;;;;;;13.40;7.15;;;;;;;;;;5080031;28;20024;-76
2022/08/20 08:52:14;;;;;;;14.25;7.20;;;;;;;;;;5084715;28;20035;-77
2022/08/20 08:54:44;;;;;;;13.25;8.50;;;;;;;;;;5081937;28;20122;-76
2022/08/20 08:57:10;;;;;;;14.52;8.10;;;;;;;;;;5081462;28;20454;-76
2022/08/20 08:59:36;;;;;;;13.32;7.88;;;;;;;;;;5079166;28;20462;-77
2022/08/20 09:02:02;;;;;;;12.35;7.63;;;;;;;;;;5080214;28;20019;-74
2022/08/20 09:04:39;;;;;;;13.73;7.05;;;;;;;;;;5083682;28;20026;-73
2022/08/20 09:07:09;;;;;;;12.25;6.55;;;;;;;;;;5081998;28;20477;-74
2022/08/20 09:09:37;;;;;;;11.98;7.03;;;;;;;;;;5078438;28;20013;-73
2022/08/20 09:12:05;;;;;;;11.85;7.22;;;;;;;;;;5076524;28;20287;-73
2022/08/20 09:14:31;;;;;;;14.40;6.93;;;;;;;;;;5079979;28;20024;-73
2022/08/20 09:16:57;;;;;;;17.88;8.25;;;;;;;;;;5078443;28;20025;-74
2022/08/20 09:19:23;;;;;;;11.70;7.07;;;;;;;;;;5079827;28;20040;-73
2022/08/20 09:21:49;;;;;;;11.07;6.72;;;;;;;;;;5079250;28;20059;-73
2022/08/20 09:24:15;;;;;;;13.52;8.13;;;;;;;;;;5078600;28;20497;-73
2022/08/20 09:26:41;;;;;;;10.30;7.60;;;;;;;;;;5079129;28;20060;-74
2022/08/20 09:29:08;;;;;;;12.05;8.43;;;;;;;;;;5078886;28;20067;-74
2022/08/20 09:31:34;;;;;;;11.75;6.85;;;;;;;;;;5078751;28;20242;-74
2022/08/20 09:34:00;;;;;;;14.38;7.63;;;;;;;;;;5094139;28;20115;-74
2022/08/20 09:36:26;;;;;;;12.77;8.27;;;;;;;;;;5079744;28;20108;-74
2022/08/20 09:38:52;;;;;;;11.85;7.57;;;;;;;;;;5080731;28;20035;-75
2022/08/20 09:41:19;;;;;;;8.65;5.28;;;;;;;;;;5079313;28;20032;-73
2022/08/20 09:43:45;;;;;;;10.32;7.03;;;;;;;;;;5074914;28;20394;-75
2022/08/20 09:46:11;;;;;;;12.30;7.78;;;;;;;;;;5082974;28;20489;-74
2022/08/20 09:48:37;;;;;;;8.88;7.20;;;;;;;;;;5078287;28;20074;-74
2022/08/20 09:51:03;;;;;;;9.77;5.80;;;;;;;;;;5082896;28;20044;-74
2022/08/20 09:53:29;;;;;;;10.35;6.05;;;;;;;;;;5083887;28;20381;-74
2022/08/20 09:55:56;;;;;;;13.15;7.07;;;;;;;;;;5088654;28;20051;-77
2022/08/20 09:58:24;;;;;;;11.77;7.70;;;;;;;;;;5090712;28;20028;-74
2022/08/20 10:00:50;;;;;;;15.30;9.43;;;;;;;;;;5085325;28;20031;-73
2022/08/20 10:03:16;;;;;;;15.10;7.88;;;;;;;;;;5082668;28;20028;-74
2022/08/20 10:05:43;;;;;;;15.98;8.48;;;;;;;;;;5093372;28;20466;-75
2022/08/20 10:08:10;;;;;;;11.15;7.30;;;;;;;;;;5085303;28;20485;-74
2022/08/20 10:10:36;;;;;;;15.13;7.57;;;;;;;;;;5082506;28;20023;-73
2022/08/20 10:13:02;;;;;;;14.35;7.93;;;;;;;;;;5084078;28;20051;-75
2022/08/20 10:15:29;;;;;;;12.88;8.20;;;;;;;;;;5079795;28;20020;-74
2022/08/20 10:17:56;;;;;;;15.82;8.55;;;;;;;;;;5082624;28;20413;-73
2022/08/20 10:20:22;;;;;;;12.50;7.72;;;;;;;;;;5076525;28;20012;-73
2022/08/20 10:22:48;;;;;;;13.55;8.55;;;;;;;;;;5081977;28;20024;-73
2022/08/20 10:25:16;;;;;;;10.77;6.78;;;;;;;;;;5080196;28;20024;-73
2022/08/20 10:27:42;;;;;;;10.17;6.20;;;;;;;;;;5082205;28;20044;-73
2022/08/20 10:30:08;;;;;;;13.85;8.43;;;;;;;;;;5081724;28;20025;-74
2022/08/20 10:32:34;;;;;;;11.00;7.18;;;;;;;;;;5080981;28;20040;-74
2022/08/20 10:35:00;;;;;;;11.55;8.18;;;;;;;;;;5084222;28;20041;-76
2022/08/20 10:37:26;;;;;;;15.20;8.45;;;;;;;;;;5092854;28;20524;-76
2022/08/20 10:39:53;;;;;;;15.55;7.93;;;;;;;;;;5089331;28;20020;-74
2022/08/20 10:42:19;;;;;;;13.00;7.05;;;;;;;;;;5092924;28;20028;-74
2022/08/20 10:44:45;;;;;;;12.50;7.63;;;;;;;;;;5091903;28;20359;-73
2022/08/20 10:47:17;;;;;;;11.00;6.43;;;;;;;;;;5092630;28;20059;-72
2022/08/20 10:49:44;;;;;;;18.83;9.30;;;;;;;;;;5090824;28;20077;-73
2022/08/20 10:52:10;;;;;;;18.92;9.93;;;;;;;;;;5078493;28;20035;-72
2022/08/20 10:54:40;;;;;;;11.82;6.20;;;;;;;;;;5077557;28;20363;-75
2022/08/20 10:57:06;;;;;;;13.77;8.25;;;;;;;;;;5077277;28;20028;-74
2022/08/20 10:59:32;;;;;;;16.40;8.43;;;;;;;;;;5079118;28;20039;-74
2022/08/20 11:01:57;;;;;;;18.35;9.88;;;;;;;;;;5076523;28;20106;-73
2022/08/20 11:04:23;;;;;;;12.82;7.13;;;;;;;;;;5077609;28;20012;-74
2022/08/20 11:06:49;;;;;;;11.63;7.32;;;;;;;;;;5076027;28;20419;-74
2022/08/20 11:09:15;;;;;;;15.00;8.07;;;;;;;;;;5077506;28;20515;-72
2022/08/20 11:11:41;;;;;;;13.13;7.80;;;;;;;;;;5078547;28;20386;-73
2022/08/20 11:14:07;;;;;;;16.45;9.20;;;;;;;;;;5084472;28;20393;-74
2022/08/20 11:16:33;;;;;;;16.40;8.52;;;;;;;;;;5078788;28;20074;-74
2022/08/20 11:18:59;;;;;;;13.13;6.93;;;;;;;;;;5076584;28;20475;-74
2022/08/20 11:21:25;;;;;;;13.20;6.70;;;;;;;;;;5072791;28;20017;-73
2022/08/20 11:23:51;;;;;;;13.07;8.55;;;;;;;;;;5084429;28;20063;-74
2022/08/20 11:26:21;;;;;;;12.88;7.60;;;;;;;;;;5078283;28;20062;-75
2022/08/20 11:28:46;;;;;;;14.27;7.70;;;;;;;;;;5078749;28;20545;-75
2022/08/20 11:31:12;;;;;;;11.18;7.35;;;;;;;;;;5076902;28;20099;-76
2022/08/20 11:33:38;;;;;;;14.75;6.63;;;;;;;;;;5078356;28;20057;-74
2022/08/20 11:36:05;;;;;;;9.27;5.90;;;;;;;;;;5077490;28;20020;-73
2022/08/20 11:38:31;;;;;;;14.23;6.97;;;;;;;;;;5077255;28;20039;-74
2022/08/20 11:40:57;;;;;;;9.77;5.78;;;;;;;;;;5077921;28;20020;-73
2022/08/20 11:43:23;;;;;;;7.45;4.80;;;;;;;;;;5076235;28;20017;-72
2022/08/20 11:45:53;;;;;;;9.63;5.32;;;;;;;;;;5075435;28;20025;-74
2022/08/20 11:48:19;;;;;;;10.60;5.78;;;;;;;;;;5074949;28;20033;-73
2022/08/20 11:50:46;;;;;;;15.63;5.82;;;;;;;;;;5072804;28;20020;-73
2022/08/20 11:53:12;;;;;;;12.30;5.68;;;;;;;;;;5075119;28;20044;-72
2022/08/20 11:55:38;;;;;;;9.68;4.93;;;;;;;;;;5075883;28;20119;-73
2022/08/20 11:58:04;;;;;;;10.68;4.93;;;;;;;;;;5076173;28;20036;-72
2022/08/20 12:00:30;;;;;;;10.95;4.40;;;;;;;;;;5078311;28;20025;-73
2022/08/20 12:02:57;;;;;;;11.95;4.82;;;;;;;;;;5077969;28;20075;-72
2022/08/20 12:05:23;;;;;;;8.63;4.07;;;;;;;;;;5078897;28;20020;-72
2022/08/20 12:07:49;;;;;;;7.88;3.35;;;;;;;;;;5071621;28;20032;-74
2022/08/20 12:10:15;;;;;;;9.88;3.38;;;;;;;;;;5071406;28;20048;-74
2022/08/20 12:12:41;;;;;;;8.30;3.53;;;;;;;;;;5074205;28;20478;-73
2022/08/20 12:15:08;;;;;;;6.57;3.45;;;;;;;;;;5089705;28;20024;-74
2022/08/20 12:17:34;;;;;;;7.40;3.22;;;;;;;;;;5078598;28;20477;-72
2022/08/20 12:20:01;;;;;;;8.52;3.38;;;;;;;;;;5089413;28;20052;-73
2022/08/20 12:22:27;;;;;;;8.50;3.20;;;;;;;;;;5072429;28;20417;-73
2022/08/20 12:24:54;;;;;;;6.57;2.85;;;;;;;;;;5068109;28;20031;-74
2022/08/20 12:27:24;;;;;;;7.28;2.85;;;;;;;;;;5070020;28;20088;-73
2022/08/20 12:29:52;;;;;;;9.23;3.33;;;;;;;;;;5072927;28;20033;-74
2022/08/20 12:32:18;;;;;;;8.68;2.70;;;;;;;;;;5075985;28;20412;-73
2022/08/20 12:34:44;;;;;;;7.63;2.67;;;;;;;;;;5078436;28;20040;-75
2022/08/20 12:37:12;;;;;;;7.22;2.80;;;;;;;;;;5077119;28;20016;-74
2022/08/20 12:39:39;;;;;;;5.68;2.55;;;;;;;;;;5076004;28;20031;-73
2022/08/20 12:42:05;;;;;;;7.50;2.72;;;;;;;;;;5078269;28;20382;-74
2022/08/20 12:44:32;;;;;;;4.78;2.00;;;;;;;;;;5078572;28;20017;-74
2022/08/20 12:47:05;;;;;;;6.90;1.77;;;;;;;;;;5075450;28;20020;-73
2022/08/20 12:49:31;;;;;;;7.82;2.00;;;;;;;;;;5082707;28;20028;-72
2022/08/20 12:51:57;;;;;;;7.28;1.90;;;;;;;;;;5075250;28;20290;-74
2022/08/20 12:54:23;;;;;;;6.45;1.70;;;;;;;;;;5075486;28;20017;-74
2022/08/20 12:56:50;;;;;;;4.95;2.20;;;;;;;;;;5076375;28;20063;-72
2022/08/20 12:59:16;;;;;;;5.75;2.15;;;;;;;;;;5076641;28;20021;-73
2022/08/20 13:01:42;;;;;;;4.90;2.10;;;;;;;;;;5076252;28;20028;-72
2022/08/20 13:04:08;;;;;;;5.18;1.85;;;;;;;;;;5075860;28;20032;-73
2022/08/20 13:06:34;;;;;;;6.15;2.00;;;;;;;;;;5071076;28;20371;-73
2022/08/20 13:09:00;;;;;;;8.50;2.10;;;;;;;;;;5069083;28;20025;-72
2022/08/20 13:11:27;;;;;;;6.43;2.20;;;;;;;;;;5070784;28;20040;-73
2022/08/20 13:13:52;;;;;;;8.40;2.10;;;;;;;;;;5073124;28;20160;-75
2022/08/20 13:16:18;;;;;;;6.20;2.10;;;;;;;;;;5076280;28;20104;-74
2022/08/20 13:18:45;;;;;;;5.13;2.13;;;;;;;;;;5073672;28;20033;-74
2022/08/20 13:21:11;;;;;;;4.88;1.88;;;;;;;;;;5072668;28;20351;-74
2022/08/20 13:23:37;;;;;;;5.25;2.10;;;;;;;;;;5078377;28;20039;-73
2022/08/20 13:26:04;;;;;;;8.90;2.20;;;;;;;;;;5073426;28;20037;-76
2022/08/20 13:28:30;;;;;;;5.43;2.53;;;;;;;;;;5075017;28;20532;-74
2022/08/20 13:30:56;;;;;;;5.95;2.10;;;;;;;;;;5078931;28;20536;-74
2022/08/20 13:33:23;;;;;;;9.18;2.55;;;;;;;;;;5074204;28;20028;-74
2022/08/20 13:35:49;;;;;;;6.38;2.45;;;;;;;;;;5085052;28;20008;-74
2022/08/20 13:38:15;;;;;;;4.55;2.00;;;;;;;;;;5091462;28;20085;-75
2022/08/20 13:40:41;;;;;;;5.05;2.17;;;;;;;;;;5093457;28;20016;-75
2022/08/20 13:43:07;;;;;;;5.10;2.60;;;;;;;;;;5084663;28;20075;-76
2022/08/20 13:45:33;;;;;;;3.75;2.15;;;;;;;;;;5077227;28;20052;-75
2022/08/20 13:47:59;;;;;;;5.35;2.42;;;;;;;;;;5079422;28;20107;-75
2022/08/20 13:50:25;;;;;;;4.57;2.40;;;;;;;;;;5077906;28;20107;-76
2022/08/20 13:52:51;;;;;;;5.28;2.03;;;;;;;;;;5076424;28;20054;-75
2022/08/20 13:55:18;;;;;;;5.55;2.40;;;;;;;;;;5080232;28;20526;-75
2022/08/20 13:57:45;;;;;;;4.85;2.60;;;;;;;;;;5080975;28;20031;-75
2022/08/20 14:00:13;;;;;;;4.50;2.13;;;;;;;;;;5082824;28;20025;-74
2022/08/20 14:02:40;;;;;;;5.30;2.10;;;;;;;;;;5080389;28;20021;-74
2022/08/20 14:05:06;;;;;;;5.35;2.22;;;;;;;;;;5071722;28;20039;-76
2022/08/20 14:07:32;;;;;;;5.30;2.60;;;;;;;;;;5073781;28;20086;-78
2022/08/20 14:10:00;;;;;;;5.38;2.50;;;;;;;;;;5073754;28;20498;-77
2022/08/20 14:12:26;;;;;;;3.07;1.90;;;;;;;;;;5085394;28;20020;-77
2022/08/20 14:14:52;;;;;;;4.95;2.33;;;;;;;;;;5084062;28;20352;-75
2022/08/20 14:17:23;;;;;;;6.28;2.65;;;;;;;;;;5076411;28;20161;-75
2022/08/20 14:19:50;;;;;;;4.22;2.50;;;;;;;;;;5074222;28;20028;-76
2022/08/20 14:22:16;;;;;;;7.80;2.55;;;;;;;;;;5081422;28;20159;-80
2022/08/20 14:24:43;;;;;;;4.60;2.20;;;;;;;;;;5080306;28;20009;-77
2022/08/20 14:27:09;;;;;;;4.90;2.35;;;;;;;;;;5074146;28;20151;-76
2022/08/20 14:29:36;;;;;;;3.28;1.83;;;;;;;;;;5080619;28;20103;-75
2022/08/20 14:32:02;;;;;;;4.80;2.28;;;;;;;;;;5078919;28;20549;-75
2022/08/20 14:34:28;;;;;;;4.78;2.60;;;;;;;;;;5078083;28;20130;-78
2022/08/20 14:36:54;;;;;;;4.20;2.10;;;;;;;;;;5074513;28;20016;-77
2022/08/20 14:39:20;;;;;;;5.18;2.38;;;;;;;;;;5082082;28;20020;-76
2022/08/20 14:41:46;;;;;;;7.07;2.58;;;;;;;;;;5077523;28;20028;-75
2022/08/20 14:44:12;;;;;;;5.07;2.30;;;;;;;;;;5073963;28;20110;-75